Time,TemperatureF,DewpointF,PressureIn,WindDirection,WindDirectionDegrees,WindSpeedMPH,WindSpeedGustMPH,Humidity,HourlyPrecipIn,Conditions,Clouds,dailyrainin,SolarRadiationWatts/m^2,SoftwareType,DateUTC
2013-05-24 00:01:00,60.0,7.0,-100.00,West,272,12.0,19.0,12,0.00,,,0.00,0.000000,,2013-05-24 06:01:00,
2013-05-24 00:11:00,60.0,7.0,-100.00,West,272,12.0,19.0,12,0.00,,,0.00,0.000000,,2013-05-24 06:11:00,
2013-05-24 00:32:00,59.0,8.0,-100.00,West,272,8.0,20.0,13,0.00,,,0.00,0.000000,,2013-05-24 06:32:00,
2013-05-24 00:42:00,59.0,8.0,-100.00,West,272,8.0,20.0,13,0.00,,,0.00,0.000000,,2013-05-24 06:42:00,
2013-05-24 00:52:00,59.0,8.0,-100.00,West,272,8.0,20.0,13,0.00,,,0.00,0.000000,,2013-05-24 06:52:00,
2013-05-24 01:01:00,59.0,8.0,-100.00,West,272,8.0,20.0,13,0.00,,,0.00,0.000000,,2013-05-24 07:01:00,
2013-05-24 01:11:00,59.0,8.0,-100.00,West,272,8.0,20.0,13,0.00,,,0.00,0.000000,,2013-05-24 07:11:00,
2013-05-24 01:32:00,57.0,8.0,-100.00,WNW,289,12.0,23.0,14,0.00,,,0.00,0.000000,,2013-05-24 07:32:00,
2013-05-24 01:42:00,57.0,8.0,-100.00,WNW,289,12.0,23.0,14,0.00,,,0.00,0.000000,,2013-05-24 07:42:00,
2013-05-24 01:52:00,57.0,8.0,-100.00,WNW,289,12.0,23.0,14,0.00,,,0.00,0.000000,,2013-05-24 07:52:00,
2013-05-24 02:02:00,57.0,8.0,-100.00,WNW,289,12.0,23.0,14,0.00,,,0.00,0.000000,,2013-05-24 08:02:00,
2013-05-24 02:11:00,57.0,8.0,-100.00,WNW,289,12.0,23.0,14,0.00,,,0.00,0.000000,,2013-05-24 08:11:00,
2013-05-24 02:33:00,56.0,9.0,-100.00,West,278,9.0,20.0,15,0.00,,,0.00,0.000000,,2013-05-24 08:33:00,
2013-05-24 02:42:00,56.0,9.0,-100.00,West,278,9.0,20.0,15,0.00,,,0.00,0.000000,,2013-05-24 08:42:00,
2013-05-24 02:52:00,56.0,9.0,-100.00,West,278,9.0,20.0,15,0.00,,,0.00,0.000000,,2013-05-24 08:52:00,
2013-05-24 03:01:00,56.0,9.0,-100.00,West,278,9.0,20.0,15,0.00,,,0.00,0.000000,,2013-05-24 09:01:00,
2013-05-24 03:11:00,56.0,9.0,-100.00,West,278,9.0,20.0,15,0.00,,,0.00,0.000000,,2013-05-24 09:11:00,
2013-05-24 03:33:00,54.0,10.0,-100.00,WNW,282,8.0,12.0,17,0.00,,,0.00,0.000000,,2013-05-24 09:33:00,
2013-05-24 03:42:00,54.0,10.0,-100.00,WNW,282,8.0,12.0,17,0.00,,,0.00,0.000000,,2013-05-24 09:42:00,
2013-05-24 03:53:00,54.0,10.0,-100.00,WNW,282,8.0,12.0,17,0.00,,,0.00,0.000000,,2013-05-24 09:53:00,
2013-05-24 04:02:00,54.0,10.0,-100.00,WNW,282,8.0,12.0,17,0.00,,,0.00,0.000000,,2013-05-24 10:02:00,
2013-05-24 04:33:00,53.0,12.0,-100.00,WSW,258,7.0,13.0,19,-99.99,,,0.00,0.000000,,2013-05-24 10:33:00,
2013-05-24 04:42:00,53.0,12.0,-100.00,WSW,258,7.0,13.0,19,-99.99,,,0.00,0.000000,,2013-05-24 10:42:00,
2013-05-24 04:52:00,53.0,12.0,-100.00,WSW,258,7.0,13.0,19,-99.99,,,0.00,0.000000,,2013-05-24 10:52:00,
2013-05-24 05:02:00,53.0,12.0,-100.00,WSW,258,7.0,13.0,19,-99.99,,,0.00,0.000000,,2013-05-24 11:02:00,
2013-05-24 05:32:00,52.0,11.0,-100.00,SSW,211,5.0,9.0,19,-99.99,,,0.00,0.000000,,2013-05-24 11:32:00,
2013-05-24 05:42:00,52.0,11.0,-100.00,SSW,211,5.0,9.0,19,-99.99,,,0.00,0.000000,,2013-05-24 11:42:00,
2013-05-24 05:52:00,52.0,11.0,-100.00,SSW,211,5.0,9.0,19,-99.99,,,0.00,0.000000,,2013-05-24 11:52:00,
2013-05-24 06:01:00,52.0,11.0,-100.00,SSW,211,5.0,9.0,19,-99.99,,,0.00,0.000000,,2013-05-24 12:01:00,
2013-05-24 06:11:00,52.0,11.0,-100.00,SSW,211,5.0,9.0,19,-99.99,,,0.00,0.000000,,2013-05-24 12:11:00,
2013-05-24 06:33:00,51.0,14.0,-100.00,SSW,195,4.0,9.0,22,-99.99,,,0.00,2.000000,,2013-05-24 12:33:00,
2013-05-24 06:42:00,51.0,14.0,-100.00,SSW,195,4.0,9.0,22,-99.99,,,0.00,2.000000,,2013-05-24 12:42:00,
2013-05-24 06:52:00,51.0,14.0,-100.00,SSW,195,4.0,9.0,22,-99.99,,,0.00,2.000000,,2013-05-24 12:52:00,
2013-05-24 07:02:00,51.0,14.0,-100.00,SSW,195,4.0,9.0,22,-99.99,,,0.00,2.000000,,2013-05-24 13:02:00,
2013-05-24 07:11:00,51.0,14.0,-100.00,SSW,195,4.0,9.0,22,-99.99,,,0.00,2.000000,,2013-05-24 13:11:00,
2013-05-24 07:32:00,54.0,16.0,-100.00,South,169,5.0,6.0,22,-99.99,,,0.00,83.000000,,2013-05-24 13:32:00,
2013-05-24 07:42:00,54.0,16.0,-100.00,South,169,5.0,6.0,22,-99.99,,,0.00,83.000000,,2013-05-24 13:42:00,
2013-05-24 07:52:00,54.0,16.0,-100.00,South,169,5.0,6.0,22,-99.99,,,0.00,83.000000,,2013-05-24 13:52:00,
2013-05-24 08:01:00,54.0,16.0,-100.00,South,169,5.0,6.0,22,-99.99,,,0.00,83.000000,,2013-05-24 14:01:00,
2013-05-24 08:11:00,54.0,16.0,-100.00,South,169,5.0,6.0,22,-99.99,,,0.00,83.000000,,2013-05-24 14:11:00,
2013-05-24 08:32:00,57.0,16.0,-100.00,South,181,6.0,10.0,20,0.00,,,0.00,293.000000,,2013-05-24 14:32:00,
2013-05-24 08:42:00,57.0,16.0,-100.00,South,181,6.0,10.0,20,0.00,,,0.00,293.000000,,2013-05-24 14:42:00,
2013-05-24 08:52:00,57.0,16.0,-100.00,South,181,6.0,10.0,20,0.00,,,0.00,293.000000,,2013-05-24 14:52:00,
2013-05-24 09:02:00,57.0,16.0,-100.00,South,181,6.0,10.0,20,0.00,,,0.00,293.000000,,2013-05-24 15:02:00,
2013-05-24 09:11:00,57.0,16.0,-100.00,South,181,6.0,10.0,20,0.00,,,0.00,293.000000,,2013-05-24 15:11:00,
2013-05-24 09:12:00,61.0,20.0,-100.00,South,184,6.0,11.0,20,0.00,,,0.00,487.000000,,2013-05-24 15:12:00,
2013-05-24 09:33:00,61.0,20.0,-100.00,South,184,6.0,11.0,20,0.00,,,0.00,487.000000,,2013-05-24 15:33:00,
2013-05-24 09:43:00,61.0,20.0,-100.00,South,184,6.0,11.0,20,0.00,,,0.00,487.000000,,2013-05-24 15:43:00,
2013-05-24 09:52:00,61.0,20.0,-100.00,South,184,6.0,11.0,20,0.00,,,0.00,487.000000,,2013-05-24 15:52:00,
2013-05-24 10:03:00,61.0,20.0,-100.00,South,184,6.0,11.0,20,0.00,,,0.00,487.000000,,2013-05-24 16:03:00,
2013-05-24 10:12:00,63.0,20.0,-100.00,South,185,8.0,13.0,19,0.00,,,0.00,669.000000,,2013-05-24 16:12:00,
2013-05-24 10:33:00,63.0,20.0,-100.00,South,185,8.0,13.0,19,0.00,,,0.00,669.000000,,2013-05-24 16:33:00,
2013-05-24 10:42:00,63.0,20.0,-100.00,South,185,8.0,13.0,19,0.00,,,0.00,669.000000,,2013-05-24 16:42:00,
2013-05-24 10:52:00,63.0,20.0,-100.00,South,185,8.0,13.0,19,0.00,,,0.00,669.000000,,2013-05-24 16:52:00,
2013-05-24 11:01:00,63.0,20.0,-100.00,South,185,8.0,13.0,19,0.00,,,0.00,669.000000,,2013-05-24 17:01:00,
2013-05-24 11:32:00,64.0,20.0,-100.00,South,190,12.0,18.0,18,0.00,,,0.00,819.000000,,2013-05-24 17:32:00,
2013-05-24 11:42:00,64.0,20.0,-100.00,South,190,12.0,18.0,18,0.00,,,0.00,819.000000,,2013-05-24 17:42:00,
2013-05-24 11:52:00,64.0,20.0,-100.00,South,190,12.0,18.0,18,0.00,,,0.00,819.000000,,2013-05-24 17:52:00,
2013-05-24 12:01:00,64.0,20.0,-100.00,South,190,12.0,18.0,18,0.00,,,0.00,819.000000,,2013-05-24 18:01:00,
2013-05-24 12:11:00,64.0,20.0,-100.00,South,190,12.0,18.0,18,0.00,,,0.00,819.000000,,2013-05-24 18:11:00,
2013-05-24 12:32:00,68.0,22.0,-100.00,SSW,213,10.0,20.0,17,0.00,,,0.00,920.000000,,2013-05-24 18:32:00,
2013-05-24 12:42:00,68.0,22.0,-100.00,SSW,213,10.0,20.0,17,0.00,,,0.00,920.000000,,2013-05-24 18:42:00,
2013-05-24 12:52:00,68.0,22.0,-100.00,SSW,213,10.0,20.0,17,0.00,,,0.00,920.000000,,2013-05-24 18:52:00,
2013-05-24 13:01:00,68.0,22.0,-100.00,SSW,213,10.0,20.0,17,0.00,,,0.00,920.000000,,2013-05-24 19:01:00,
2013-05-24 13:11:00,68.0,22.0,-100.00,SSW,213,10.0,20.0,17,0.00,,,0.00,920.000000,,2013-05-24 19:11:00,
2013-05-24 13:32:00,69.0,18.0,-100.00,SSW,196,11.0,23.0,14,0.00,,,0.00,969.000000,,2013-05-24 19:32:00,
2013-05-24 13:42:00,69.0,18.0,-100.00,SSW,196,11.0,23.0,14,0.00,,,0.00,969.000000,,2013-05-24 19:42:00,
2013-05-24 13:52:00,69.0,18.0,-100.00,SSW,196,11.0,23.0,14,0.00,,,0.00,969.000000,,2013-05-24 19:52:00,
2013-05-24 14:02:00,69.0,18.0,-100.00,SSW,196,11.0,23.0,14,0.00,,,0.00,969.000000,,2013-05-24 20:02:00,
2013-05-24 14:11:00,69.0,18.0,-100.00,SSW,196,11.0,23.0,14,0.00,,,0.00,969.000000,,2013-05-24 20:11:00,
2013-05-24 14:32:00,71.0,18.0,-100.00,SSW,199,11.0,23.0,13,0.00,,,0.00,961.000000,,2013-05-24 20:32:00,
2013-05-24 14:42:00,71.0,18.0,-100.00,SSW,199,11.0,23.0,13,0.00,,,0.00,961.000000,,2013-05-24 20:42:00,
2013-05-24 14:52:00,71.0,18.0,-100.00,SSW,199,11.0,23.0,13,0.00,,,0.00,961.000000,,2013-05-24 20:52:00,
2013-05-24 15:01:00,71.0,18.0,-100.00,SSW,199,11.0,23.0,13,0.00,,,0.00,961.000000,,2013-05-24 21:01:00,
2013-05-24 15:11:00,71.0,18.0,-100.00,SSW,199,11.0,23.0,13,0.00,,,0.00,961.000000,,2013-05-24 21:11:00,
2013-05-24 15:12:00,73.0,15.0,-100.00,SSW,195,9.0,23.0,11,0.00,,,0.00,897.000000,,2013-05-24 21:12:00,
2013-05-24 15:33:00,73.0,15.0,-100.00,SSW,195,9.0,23.0,11,0.00,,,0.00,897.000000,,2013-05-24 21:33:00,
2013-05-24 15:43:00,73.0,15.0,-100.00,SSW,195,9.0,23.0,11,0.00,,,0.00,897.000000,,2013-05-24 21:43:00,
2013-05-24 15:53:00,73.0,15.0,-100.00,SSW,195,9.0,23.0,11,0.00,,,0.00,897.000000,,2013-05-24 21:53:00,
2013-05-24 16:02:00,73.0,15.0,-100.00,SSW,195,9.0,23.0,11,0.00,,,0.00,897.000000,,2013-05-24 22:02:00,
2013-05-24 16:33:00,73.0,17.0,-100.00,South,189,10.0,17.0,12,0.00,,,0.00,784.000000,,2013-05-24 22:33:00,
2013-05-24 16:42:00,73.0,17.0,-100.00,South,189,10.0,17.0,12,0.00,,,0.00,784.000000,,2013-05-24 22:42:00,
2013-05-24 16:52:00,73.0,17.0,-100.00,South,189,10.0,17.0,12,0.00,,,0.00,784.000000,,2013-05-24 22:52:00,
2013-05-24 17:02:00,73.0,17.0,-100.00,South,189,10.0,17.0,12,0.00,,,0.00,784.000000,,2013-05-24 23:02:00,
2013-05-24 17:11:00,73.0,17.0,-100.00,South,189,10.0,17.0,12,0.00,,,0.00,784.000000,,2013-05-24 23:11:00,
2013-05-24 17:32:00,71.0,14.0,-100.00,SW,226,9.0,22.0,11,0.00,,,0.00,624.000000,,2013-05-24 23:32:00,
2013-05-24 17:42:00,71.0,14.0,-100.00,SW,226,9.0,22.0,11,0.00,,,0.00,624.000000,,2013-05-24 23:42:00,
2013-05-24 17:52:00,71.0,14.0,-100.00,SW,226,9.0,22.0,11,0.00,,,0.00,624.000000,,2013-05-24 23:52:00,
2013-05-24 18:01:00,71.0,14.0,-100.00,SW,226,9.0,22.0,11,0.00,,,0.00,624.000000,,2013-05-25 00:01:00,
2013-05-24 18:11:00,71.0,14.0,-100.00,SW,226,9.0,22.0,11,0.00,,,0.00,624.000000,,2013-05-25 00:11:00,
2013-05-24 18:32:00,70.0,11.0,-100.00,WSW,241,8.0,19.0,10,0.00,,,0.00,361.000000,,2013-05-25 00:32:00,
2013-05-24 18:42:00,70.0,11.0,-100.00,WSW,241,8.0,19.0,10,0.00,,,0.00,361.000000,,2013-05-25 00:42:00,
2013-05-24 18:52:00,70.0,11.0,-100.00,WSW,241,8.0,19.0,10,0.00,,,0.00,361.000000,,2013-05-25 00:52:00,
2013-05-24 19:01:00,70.0,11.0,-100.00,WSW,241,8.0,19.0,10,0.00,,,0.00,361.000000,,2013-05-25 01:01:00,
2013-05-24 19:11:00,70.0,11.0,-100.00,WSW,241,8.0,19.0,10,0.00,,,0.00,361.000000,,2013-05-25 01:11:00,
2013-05-24 19:32:00,65.0,9.0,-100.00,WSW,247,7.0,15.0,11,0.00,,,0.00,173.000000,,2013-05-25 01:32:00,
2013-05-24 19:42:00,65.0,9.0,-100.00,WSW,247,7.0,15.0,11,0.00,,,0.00,173.000000,,2013-05-25 01:42:00,
2013-05-24 19:52:00,65.0,9.0,-100.00,WSW,247,7.0,15.0,11,0.00,,,0.00,173.000000,,2013-05-25 01:52:00,
2013-05-24 20:01:00,65.0,9.0,-100.00,WSW,247,7.0,15.0,11,0.00,,,0.00,173.000000,,2013-05-25 02:01:00,
2013-05-24 20:11:00,65.0,9.0,-100.00,WSW,247,7.0,15.0,11,0.00,,,0.00,173.000000,,2013-05-25 02:11:00,
2013-05-24 20:32:00,63.0,11.0,-100.00,WNW,283,7.0,12.0,13,0.00,,,0.00,40.000000,,2013-05-25 02:32:00,
2013-05-24 20:42:00,63.0,11.0,-100.00,WNW,283,7.0,12.0,13,0.00,,,0.00,40.000000,,2013-05-25 02:42:00,
2013-05-24 20:52:00,63.0,11.0,-100.00,WNW,283,7.0,12.0,13,0.00,,,0.00,40.000000,,2013-05-25 02:52:00,
2013-05-24 21:01:00,63.0,11.0,-100.00,WNW,283,7.0,12.0,13,0.00,,,0.00,40.000000,,2013-05-25 03:01:00,
2013-05-24 21:11:00,63.0,11.0,-100.00,WNW,283,7.0,12.0,13,0.00,,,0.00,40.000000,,2013-05-25 03:11:00,
2013-05-24 21:12:00,61.0,11.0,-100.00,WNW,295,10.0,12.0,14,0.00,,,0.00,1.000000,,2013-05-25 03:12:00,
2013-05-24 21:33:00,61.0,11.0,-100.00,WNW,295,10.0,12.0,14,0.00,,,0.00,1.000000,,2013-05-25 03:33:00,
2013-05-24 21:43:00,61.0,11.0,-100.00,WNW,295,10.0,12.0,14,0.00,,,0.00,1.000000,,2013-05-25 03:43:00,
2013-05-24 21:53:00,61.0,11.0,-100.00,WNW,295,10.0,12.0,14,0.00,,,0.00,1.000000,,2013-05-25 03:53:00,
2013-05-24 22:02:00,61.0,11.0,-100.00,WNW,295,10.0,12.0,14,0.00,,,0.00,1.000000,,2013-05-25 04:02:00,
2013-05-24 22:33:00,59.0,11.0,-100.00,WNW,296,9.0,12.0,15,0.00,,,0.00,0.000000,,2013-05-25 04:33:00,
2013-05-24 22:43:00,59.0,11.0,-100.00,WNW,296,9.0,12.0,15,0.00,,,0.00,0.000000,,2013-05-25 04:43:00,
2013-05-24 22:52:00,59.0,11.0,-100.00,WNW,296,9.0,12.0,15,0.00,,,0.00,0.000000,,2013-05-25 04:52:00,
2013-05-24 23:02:00,59.0,11.0,-100.00,WNW,296,9.0,12.0,15,0.00,,,0.00,0.000000,,2013-05-25 05:02:00,
2013-05-24 23:11:00,59.0,11.0,-100.00,WNW,296,9.0,12.0,15,0.00,,,0.00,0.000000,,2013-05-25 05:11:00,
2013-05-24 23:32:00,60.0,12.0,-100.00,WNW,287,9.0,11.0,15,0.00,,,0.00,0.000000,,2013-05-25 05:32:00,
2013-05-24 23:43:00,60.0,12.0,-100.00,WNW,287,9.0,11.0,15,0.00,,,0.00,0.000000,,2013-05-25 05:43:00,
2013-05-24 23:52:00,60.0,12.0,-100.00,WNW,287,9.0,11.0,15,0.00,,,0.00,0.000000,,2013-05-25 05:52:00,